createdAt,value
2019-05-22T00:01:27.160Z,15.70
2019-05-22T00:03:57.930Z,15.70
2019-05-22T00:06:34.431Z,15.80
2019-05-22T00:09:07.731Z,15.90
2019-05-22T00:11:40.290Z,15.90
2019-05-22T00:14:10.698Z,15.90
2019-05-22T00:16:42.070Z,15.90
2019-05-22T00:19:13.214Z,15.90
2019-05-22T00:21:43.170Z,15.90
2019-05-22T00:24:12.555Z,15.60
2019-05-22T00:26:43.707Z,15.60
2019-05-22T00:29:13.201Z,15.60
2019-05-22T00:31:43.060Z,15.60
2019-05-22T00:34:14.006Z,15.80
2019-05-22T00:36:43.963Z,15.80
2019-05-22T00:39:14.296Z,15.80
2019-05-22T00:41:46.445Z,15.80
2019-05-22T00:44:17.452Z,15.80
2019-05-22T00:46:47.958Z,15.80
2019-05-22T00:49:18.059Z,15.80
2019-05-22T00:51:56.152Z,15.80
2019-05-22T00:54:43.015Z,15.80
2019-05-22T00:57:16.849Z,15.90
2019-05-22T00:59:47.955Z,15.90
2019-05-22T01:02:29.039Z,15.80
2019-05-22T01:04:58.359Z,15.80
2019-05-22T01:07:39.002Z,15.90
2019-05-22T01:10:11.702Z,15.80
2019-05-22T01:12:43.162Z,15.60
2019-05-22T01:15:15.592Z,15.60
2019-05-22T01:17:47.054Z,15.60
2019-05-22T01:20:21.168Z,15.70
2019-05-22T01:22:52.388Z,15.80
2019-05-22T01:25:22.746Z,15.90
2019-05-22T01:27:53.648Z,15.90
2019-05-22T01:30:43.124Z,15.80
2019-05-22T01:33:23.331Z,15.70
2019-05-22T01:36:01.670Z,15.70
2019-05-22T01:38:33.314Z,15.80
2019-05-22T01:41:23.395Z,15.80
2019-05-22T01:43:54.855Z,15.80
2019-05-22T01:46:25.616Z,15.70
2019-05-22T01:48:59.619Z,15.70
2019-05-22T01:51:29.114Z,15.70
2019-05-22T01:53:58.423Z,15.70
2019-05-22T01:56:29.901Z,15.80
2019-05-22T01:59:00.344Z,15.80
2019-05-22T02:01:30.458Z,15.80
2019-05-22T02:04:01.881Z,15.90
2019-05-22T02:06:31.452Z,15.90
2019-05-22T02:09:21.504Z,15.90
2019-05-22T02:11:54.148Z,15.80
2019-05-22T02:14:25.410Z,15.80
2019-05-22T02:16:57.499Z,15.70
2019-05-22T02:19:28.539Z,15.60
2019-05-22T02:21:59.649Z,15.70
2019-05-22T02:24:30.979Z,15.70
2019-05-22T02:27:02.877Z,15.70
2019-05-22T02:29:32.622Z,15.80
2019-05-22T02:32:02.200Z,15.90
2019-05-22T02:34:31.984Z,15.90
2019-05-22T02:37:01.574Z,15.80
2019-05-22T02:39:32.724Z,15.70
2019-05-22T02:42:08.449Z,15.80
2019-05-22T02:44:38.084Z,15.70
2019-05-22T02:47:18.807Z,15.80
2019-05-22T02:49:41.153Z,15.70
2019-05-22T02:52:11.383Z,15.60
2019-05-22T02:54:41.305Z,15.60
2019-05-22T02:57:11.666Z,15.60
2019-05-22T02:59:42.204Z,15.80
2019-05-22T03:02:14.056Z,15.80
2019-05-22T03:05:09.771Z,15.60
2019-05-22T03:07:41.504Z,15.50
2019-05-22T03:10:13.315Z,15.50
2019-05-22T03:12:45.866Z,15.50
2019-05-22T03:15:17.886Z,15.50
2019-05-22T03:17:51.124Z,15.60
2019-05-22T03:20:22.618Z,15.60
2019-05-22T03:23:14.375Z,15.60
2019-05-22T03:25:44.530Z,15.60
2019-05-22T03:28:14.267Z,15.50
2019-05-22T03:30:45.188Z,15.60
2019-05-22T03:33:16.132Z,15.70
2019-05-22T03:35:50.938Z,15.70
2019-05-22T03:38:21.574Z,15.70
2019-05-22T03:40:53.340Z,15.80
2019-05-22T03:43:27.903Z,15.70
2019-05-22T03:45:58.983Z,15.70
2019-05-22T03:48:36.404Z,15.80
2019-05-22T03:51:13.348Z,15.60
2019-05-22T03:53:43.827Z,15.60
2019-05-22T03:56:15.073Z,15.70
2019-05-22T03:58:46.015Z,15.70
2019-05-22T04:01:15.610Z,15.80
2019-05-22T04:03:45.715Z,15.90
2019-05-22T04:06:17.468Z,15.80
2019-05-22T04:08:47.577Z,15.70
2019-05-22T04:11:19.068Z,15.60
2019-05-22T04:13:48.969Z,15.60
2019-05-22T04:16:19.968Z,15.80
2019-05-22T04:18:51.101Z,15.80
2019-05-22T04:21:20.578Z,15.90
2019-05-22T04:23:50.855Z,15.80
2019-05-22T04:26:20.619Z,15.80
2019-05-22T04:28:52.495Z,15.80
2019-05-22T04:31:40.881Z,15.80
2019-05-22T04:34:11.211Z,15.80
2019-05-22T04:36:41.020Z,15.80
2019-05-22T04:39:22.135Z,15.80
2019-05-22T04:41:52.815Z,15.70
2019-05-22T04:44:23.996Z,15.70
2019-05-22T04:46:54.356Z,15.70
2019-05-22T04:49:24.608Z,15.80
2019-05-22T04:51:54.693Z,15.80
2019-05-22T04:54:24.603Z,16.00
2019-05-22T04:56:54.196Z,16.00
2019-05-22T04:59:24.015Z,16.00
2019-05-22T05:01:53.867Z,16.00
2019-05-22T05:04:23.912Z,16.10
2019-05-22T05:06:53.869Z,16.00
2019-05-22T05:09:23.778Z,15.90
2019-05-22T05:11:54.320Z,15.80
2019-05-22T05:14:24.265Z,15.80
2019-05-22T05:16:54.118Z,15.90
2019-05-22T05:19:23.614Z,15.90
2019-05-22T05:21:53.007Z,15.90
2019-05-22T05:24:22.315Z,16.00
2019-05-22T05:26:52.825Z,15.80
2019-05-22T05:29:26.646Z,15.70
2019-05-22T05:31:56.206Z,15.80
2019-05-22T05:34:41.353Z,15.70
2019-05-22T05:37:13.476Z,15.80
2019-05-22T05:40:04.334Z,15.70
2019-05-22T05:42:34.281Z,15.70
2019-05-22T05:45:05.018Z,15.70
2019-05-22T05:47:34.902Z,15.60
2019-05-22T05:50:06.868Z,15.60
2019-05-22T05:52:38.090Z,15.70
2019-05-22T05:55:08.117Z,15.80
2019-05-22T05:57:40.880Z,15.80
2019-05-22T06:00:14.222Z,15.80
2019-05-22T06:02:56.190Z,15.80
2019-05-22T06:05:15.127Z,16.00
2019-05-22T06:07:45.064Z,15.80
2019-05-22T06:10:28.063Z,15.70
2019-05-22T06:13:00.418Z,15.90
2019-05-22T06:15:47.174Z,15.90
2019-05-22T06:18:31.738Z,15.90
2019-05-22T06:21:04.270Z,15.90
2019-05-22T06:23:39.471Z,16.00
2019-05-22T06:26:10.945Z,15.80
2019-05-22T06:28:42.217Z,15.90
2019-05-22T06:31:31.363Z,15.90
2019-05-22T06:34:01.026Z,15.80
2019-05-22T06:36:37.415Z,15.70
2019-05-22T06:39:09.967Z,15.70
2019-05-22T06:41:41.535Z,15.70
2019-05-22T06:44:33.242Z,15.80
2019-05-22T06:47:04.156Z,15.90
2019-05-22T06:49:36.568Z,15.70
2019-05-22T06:52:07.471Z,15.60
2019-05-22T06:54:38.293Z,15.50
2019-05-22T06:57:13.769Z,15.50
2019-05-22T06:59:43.631Z,15.60
2019-05-22T07:02:15.558Z,15.70
2019-05-22T07:04:46.228Z,15.50
2019-05-22T07:07:17.382Z,15.50
2019-05-22T07:09:46.687Z,15.50
2019-05-22T07:12:18.164Z,15.40
2019-05-22T07:15:06.469Z,15.50
2019-05-22T07:17:37.331Z,15.50
2019-05-22T07:20:08.554Z,15.60
2019-05-22T07:22:39.067Z,15.60
2019-05-22T07:25:09.517Z,15.60
2019-05-22T07:27:41.209Z,15.60
2019-05-22T07:30:11.017Z,15.70
2019-05-22T07:32:41.121Z,15.60
2019-05-22T07:35:10.759Z,15.60
2019-05-22T07:37:45.012Z,15.60
2019-05-22T07:40:15.407Z,15.40
2019-05-22T07:42:45.055Z,15.50
2019-05-22T07:45:15.202Z,15.50
2019-05-22T07:47:44.977Z,15.60
2019-05-22T07:50:15.719Z,15.70
2019-05-22T07:52:45.012Z,15.60
2019-05-22T07:55:15.591Z,15.50
2019-05-22T07:57:48.549Z,15.30
2019-05-22T08:00:18.396Z,15.30
2019-05-22T08:02:49.014Z,15.50
2019-05-22T08:05:21.105Z,15.40
2019-05-22T08:07:55.342Z,15.50
2019-05-22T08:10:25.593Z,15.50
2019-05-22T08:12:55.712Z,15.60
2019-05-22T08:15:27.655Z,15.80
2019-05-22T08:17:57.028Z,15.80
2019-05-22T08:20:26.338Z,15.60
2019-05-22T08:22:56.770Z,15.50
2019-05-22T08:25:26.444Z,15.30
2019-05-22T08:27:55.773Z,15.30
2019-05-22T08:30:25.680Z,15.50
2019-05-22T08:32:57.407Z,15.50
2019-05-22T08:35:27.828Z,15.40
2019-05-22T08:37:58.208Z,15.30
2019-05-22T08:40:28.147Z,15.50
2019-05-22T08:42:57.586Z,15.40
2019-05-22T08:45:27.123Z,15.30
2019-05-22T08:47:56.880Z,15.30
2019-05-22T08:50:27.090Z,15.30
2019-05-22T08:52:56.603Z,15.50
2019-05-22T08:55:26.243Z,15.60
2019-05-22T08:57:56.496Z,15.70
2019-05-22T09:00:27.572Z,15.70
2019-05-22T09:02:56.897Z,15.50
2019-05-22T09:05:27.682Z,15.40
2019-05-22T09:07:57.086Z,15.20
2019-05-22T09:10:26.903Z,15.10
2019-05-22T09:12:56.245Z,15.10
2019-05-22T09:15:26.655Z,15.20
2019-05-22T09:17:56.136Z,15.30
2019-05-22T09:20:25.794Z,15.20
2019-05-22T09:22:55.266Z,15.30
2019-05-22T09:25:24.954Z,15.40
2019-05-22T09:27:54.371Z,15.60
2019-05-22T09:30:24.780Z,15.60
2019-05-22T09:32:54.198Z,15.30
2019-05-22T09:35:23.607Z,15.60
2019-05-22T09:37:53.165Z,15.70
2019-05-22T09:40:23.727Z,15.60
2019-05-22T09:42:53.043Z,15.80
2019-05-22T09:45:22.790Z,15.70
2019-05-22T09:47:53.257Z,15.60
2019-05-22T09:50:24.162Z,15.40
2019-05-22T09:52:58.007Z,15.40
2019-05-22T09:55:25.479Z,15.30
2019-05-22T09:57:55.055Z,15.10
2019-05-22T10:00:25.080Z,15.10
2019-05-22T10:02:54.581Z,15.30
2019-05-22T10:05:23.883Z,15.50
2019-05-22T10:08:00.389Z,15.70
2019-05-22T10:10:26.711Z,15.70
2019-05-22T10:12:56.568Z,15.70
2019-05-22T10:15:26.391Z,15.80
2019-05-22T10:17:56.142Z,16.00
2019-05-22T10:20:26.115Z,15.90
2019-05-22T10:22:55.966Z,15.80
2019-05-22T10:25:26.238Z,15.80
2019-05-22T10:27:59.120Z,16.00
2019-05-22T10:30:27.224Z,16.20
2019-05-22T10:32:56.715Z,16.50
2019-05-22T10:35:28.207Z,16.60
2019-05-22T10:37:58.043Z,16.40
2019-05-22T10:40:28.283Z,16.40
2019-05-22T10:42:57.776Z,16.30
2019-05-22T10:45:27.547Z,16.20
2019-05-22T10:47:57.538Z,15.90
2019-05-22T10:50:27.659Z,15.80
2019-05-22T10:52:58.290Z,15.80
2019-05-22T10:55:28.377Z,15.90
2019-05-22T10:57:58.179Z,16.00
2019-05-22T11:00:27.737Z,15.90
2019-05-22T11:02:57.911Z,15.90
2019-05-22T11:05:27.439Z,16.10
2019-05-22T11:07:57.986Z,16.20
2019-05-22T11:10:27.546Z,16.30
2019-05-22T11:12:57.235Z,15.90
2019-05-22T11:15:26.818Z,16.10
2019-05-22T11:17:56.692Z,16.20
2019-05-22T11:20:27.791Z,16.30
2019-05-22T11:22:57.461Z,16.50
2019-05-22T11:25:27.191Z,16.60
2019-05-22T11:27:56.519Z,16.60
2019-05-22T11:30:26.105Z,16.60
2019-05-22T11:32:56.215Z,16.60
2019-05-22T11:35:27.454Z,16.20
2019-05-22T11:37:56.827Z,16.00
2019-05-22T11:40:26.922Z,16.20
2019-05-22T11:42:57.632Z,16.20
2019-05-22T11:45:27.875Z,16.60
2019-05-22T11:47:57.175Z,17.00
2019-05-22T11:50:27.810Z,17.20
2019-05-22T11:52:57.108Z,17.50
2019-05-22T11:55:42.796Z,17.90
2019-05-22T11:57:57.606Z,18.00
2019-05-22T12:00:27.609Z,18.00
2019-05-22T12:02:57.561Z,17.70
2019-05-22T12:05:26.995Z,17.50
2019-05-22T12:07:56.770Z,17.30
2019-05-22T12:10:26.502Z,17.60
2019-05-22T12:12:56.139Z,17.90
2019-05-22T12:15:28.302Z,18.20
2019-05-22T12:17:58.243Z,18.40
2019-05-22T12:20:29.262Z,18.20
2019-05-22T12:22:58.720Z,18.30
2019-05-22T12:25:28.756Z,18.40
2019-05-22T12:27:59.129Z,18.20
2019-05-22T12:30:28.557Z,18.30
2019-05-22T12:32:59.158Z,18.30
2019-05-22T12:35:29.159Z,18.30
2019-05-22T12:38:00.313Z,18.80
2019-05-22T12:40:33.735Z,19.10
2019-05-22T12:43:04.110Z,19.20
2019-05-22T12:45:34.214Z,19.40
2019-05-22T12:48:04.321Z,19.60
2019-05-22T12:50:35.063Z,19.90
2019-05-22T12:53:06.787Z,20.10
2019-05-22T12:55:36.534Z,19.70
2019-05-22T12:58:06.535Z,19.80
2019-05-22T13:00:36.326Z,19.80
2019-05-22T13:03:07.444Z,19.60
2019-05-22T13:05:37.650Z,19.50
2019-05-22T13:08:08.000Z,20.00
2019-05-22T13:10:37.950Z,20.20
2019-05-22T13:13:07.689Z,20.40
2019-05-22T13:15:38.731Z,20.90
2019-05-22T13:18:10.862Z,20.90
2019-05-22T13:20:44.911Z,20.50
2019-05-22T13:23:17.541Z,19.80
2019-05-22T13:25:46.898Z,19.80
2019-05-22T13:28:18.143Z,19.80
2019-05-22T13:30:53.439Z,20.00
2019-05-22T13:33:26.622Z,20.20
2019-05-22T13:35:56.804Z,20.30
2019-05-22T13:38:29.255Z,20.30
2019-05-22T13:40:59.771Z,20.20
2019-05-22T13:43:29.692Z,20.10
2019-05-22T13:45:59.495Z,19.70
2019-05-22T13:48:29.207Z,19.40
2019-05-22T13:50:59.987Z,19.80
2019-05-22T13:53:29.931Z,20.50
2019-05-22T13:55:59.474Z,21.10
2019-05-22T13:58:30.165Z,21.40
2019-05-22T14:00:59.691Z,21.00
2019-05-22T14:03:29.656Z,20.40
2019-05-22T14:05:59.342Z,20.40
2019-05-22T14:08:28.987Z,20.40
2019-05-22T14:10:59.106Z,20.30
2019-05-22T14:13:29.107Z,20.00
2019-05-22T14:15:58.632Z,20.10
2019-05-22T14:18:28.497Z,20.20
2019-05-22T14:20:58.107Z,20.50
2019-05-22T14:23:27.477Z,20.70
2019-05-22T14:25:57.044Z,20.50
2019-05-22T14:28:27.269Z,20.30
2019-05-22T14:30:56.915Z,20.20
2019-05-22T14:33:28.263Z,20.40
2019-05-22T14:35:58.513Z,20.70
2019-05-22T14:38:28.116Z,20.90
2019-05-22T14:40:57.755Z,20.80
2019-05-22T14:43:28.129Z,20.70
2019-05-22T14:45:57.963Z,20.10
2019-05-22T14:48:27.676Z,20.10
2019-05-22T14:50:57.071Z,19.80
2019-05-22T14:53:27.100Z,19.20
2019-05-22T14:55:57.725Z,19.10
2019-05-22T14:58:27.394Z,19.00
2019-05-22T15:00:57.069Z,19.30
2019-05-22T15:03:26.686Z,19.50
2019-05-22T15:05:56.391Z,19.70
2019-05-22T15:08:26.999Z,19.70
2019-05-22T15:10:56.485Z,19.70
2019-05-22T15:13:26.068Z,20.00
2019-05-22T15:15:55.499Z,20.50
2019-05-22T15:18:25.159Z,20.70
2019-05-22T15:20:56.587Z,20.80
2019-05-22T15:23:26.789Z,21.00
2019-05-22T15:25:56.500Z,20.70
2019-05-22T15:28:27.102Z,21.10
2019-05-22T15:30:57.007Z,20.90
2019-05-22T15:33:26.359Z,20.80
2019-05-22T15:35:55.982Z,20.80
2019-05-22T15:38:25.283Z,20.70
2019-05-22T15:40:55.529Z,20.50
2019-05-22T15:43:26.964Z,20.20
2019-05-22T15:45:58.861Z,19.90
2019-05-22T15:48:31.899Z,20.00
2019-05-22T15:51:06.717Z,20.10
2019-05-22T15:56:22.902Z,20.00
2019-05-22T15:58:54.913Z,20.60
2019-05-22T16:01:25.555Z,20.50
2019-05-22T16:03:56.687Z,20.40
2019-05-22T16:06:27.874Z,20.50
2019-05-22T16:08:58.152Z,20.40
2019-05-22T16:11:29.710Z,20.60
2019-05-22T16:14:00.823Z,20.70
2019-05-22T16:16:32.137Z,20.60
2019-05-22T16:19:04.261Z,20.30
2019-05-22T16:21:34.870Z,19.80
2019-05-22T16:24:05.776Z,19.90
2019-05-22T16:26:36.048Z,19.50
2019-05-22T16:29:07.179Z,19.50
2019-05-22T16:31:39.267Z,19.40
2019-05-22T16:34:08.563Z,19.60
2019-05-22T16:36:38.186Z,19.50
2019-05-22T16:39:10.890Z,19.90
2019-05-22T16:41:41.830Z,20.20
2019-05-22T16:44:12.179Z,20.30
2019-05-22T16:46:42.734Z,20.00
2019-05-22T16:49:12.955Z,19.90
2019-05-22T16:51:44.279Z,19.80
2019-05-22T16:54:20.407Z,19.80
2019-05-22T16:56:47.848Z,19.60
2019-05-22T16:59:19.160Z,19.30
2019-05-22T17:01:59.684Z,19.30
2019-05-22T17:04:20.568Z,19.60
2019-05-22T17:06:50.343Z,19.50
2019-05-22T17:09:21.361Z,19.50
2019-05-22T17:11:51.413Z,19.50
2019-05-22T17:14:21.476Z,19.30
2019-05-22T17:16:51.384Z,19.60
2019-05-22T17:19:27.237Z,19.30
2019-05-22T17:21:53.924Z,19.40
2019-05-22T17:24:23.884Z,19.00
2019-05-22T17:26:53.611Z,19.10
2019-05-22T17:29:23.890Z,19.40
2019-05-22T17:31:53.871Z,19.50
2019-05-22T17:34:34.001Z,19.60
2019-05-22T17:37:11.432Z,19.50
2019-05-22T17:39:43.047Z,19.50
2019-05-22T17:42:15.117Z,19.50
2019-05-22T17:44:47.662Z,19.50
2019-05-22T17:47:18.877Z,19.30
2019-05-22T17:49:49.522Z,19.00
2019-05-22T17:52:20.879Z,18.70
2019-05-22T17:54:51.219Z,18.90
2019-05-22T17:57:22.207Z,18.50
2019-05-22T17:59:53.570Z,18.30
2019-05-22T18:02:24.534Z,18.10
2019-05-22T18:04:54.225Z,18.30
2019-05-22T18:07:24.722Z,18.40
2019-05-22T18:09:54.715Z,18.30
2019-05-22T18:12:24.666Z,18.20
2019-05-22T18:14:54.946Z,18.30
2019-05-22T18:17:24.634Z,18.30
2019-05-22T18:19:53.946Z,18.20
2019-05-22T18:22:23.348Z,18.20
2019-05-22T18:24:52.764Z,18.00
2019-05-22T18:27:25.249Z,18.00
2019-05-22T18:29:53.700Z,18.00
2019-05-22T18:32:23.336Z,17.70
2019-05-22T18:34:52.685Z,17.50
2019-05-22T18:37:22.106Z,17.40
2019-05-22T18:39:51.503Z,17.50
2019-05-22T18:42:21.218Z,17.40
2019-05-22T18:44:50.757Z,17.40
2019-05-22T18:47:20.589Z,17.20
2019-05-22T18:49:49.923Z,17.20
2019-05-22T18:52:19.502Z,17.00
2019-05-22T18:54:48.929Z,16.90
2019-05-22T18:57:18.656Z,16.70
2019-05-22T18:59:48.236Z,16.80
2019-05-22T19:02:17.841Z,16.60
2019-05-22T19:04:47.337Z,16.80
2019-05-22T19:07:16.755Z,16.90
2019-05-22T19:09:47.118Z,16.70
2019-05-22T19:12:16.938Z,16.70
2019-05-22T19:14:46.336Z,16.70
2019-05-22T19:17:17.160Z,16.70
2019-05-22T19:19:46.844Z,16.60
2019-05-22T19:22:16.757Z,16.70
2019-05-22T19:24:46.105Z,16.50
2019-05-22T19:27:15.655Z,16.50
2019-05-22T19:29:45.182Z,16.40
2019-05-22T19:32:15.090Z,16.20
2019-05-22T19:34:44.437Z,16.10
2019-05-22T19:37:13.944Z,15.90
2019-05-22T19:39:43.290Z,15.80
2019-05-22T19:42:13.866Z,15.60
2019-05-22T19:44:43.443Z,15.60
2019-05-22T19:47:13.555Z,15.60
2019-05-22T19:49:44.042Z,15.50
2019-05-22T19:52:14.173Z,15.60
2019-05-22T19:54:44.959Z,15.60
2019-05-22T19:57:14.784Z,15.60
2019-05-22T19:59:44.397Z,15.30
2019-05-22T20:02:14.086Z,15.10
2019-05-22T20:04:43.932Z,15.00
2019-05-22T20:07:14.225Z,15.10
2019-05-22T20:09:44.706Z,15.20
2019-05-22T20:12:14.747Z,15.20
2019-05-22T20:14:44.493Z,15.10
2019-05-22T20:17:14.165Z,15.20
2019-05-22T20:19:43.709Z,15.20
2019-05-22T20:22:14.855Z,15.10
2019-05-22T20:24:44.244Z,15.20
2019-05-22T20:27:14.151Z,15.10
2019-05-22T20:29:44.646Z,14.80
2019-05-22T20:32:14.039Z,14.40
2019-05-22T20:34:44.868Z,14.50
2019-05-22T20:37:14.691Z,14.60
2019-05-22T20:39:45.769Z,14.60
2019-05-22T20:42:15.862Z,14.60
2019-05-22T20:44:45.883Z,14.50
2019-05-22T20:47:18.675Z,14.40
2019-05-22T20:49:49.517Z,14.30
2019-05-22T20:52:19.651Z,14.30
2019-05-22T20:54:49.116Z,14.40
2019-05-22T20:57:20.401Z,14.40
2019-05-22T21:00:01.549Z,14.30
2019-05-22T21:02:33.902Z,14.30
2019-05-22T21:05:03.695Z,14.10
2019-05-22T21:07:36.871Z,14.10
2019-05-22T21:10:08.108Z,14.20
2019-05-22T21:12:37.652Z,14.20
2019-05-22T21:15:08.354Z,14.10
2019-05-22T21:17:37.705Z,13.90
2019-05-22T21:20:10.290Z,13.90
2019-05-22T21:22:39.650Z,13.80
2019-05-22T21:25:12.007Z,13.70
2019-05-22T21:27:42.634Z,13.70
2019-05-22T21:30:14.085Z,13.80
2019-05-22T21:32:45.264Z,13.80
2019-05-22T21:35:17.102Z,13.50
2019-05-22T21:37:46.984Z,13.50
2019-05-22T21:40:19.558Z,13.40
2019-05-22T21:42:51.062Z,13.40
2019-05-22T21:45:20.735Z,13.40
2019-05-22T21:47:50.341Z,13.40
2019-05-22T21:50:20.378Z,13.30
2019-05-22T21:52:50.353Z,13.20
2019-05-22T21:55:23.344Z,13.20
2019-05-22T21:57:53.523Z,13.30
2019-05-22T22:00:42.682Z,13.30
2019-05-22T22:03:14.282Z,13.10
2019-05-22T22:05:44.696Z,13.10
2019-05-22T22:08:15.340Z,13.20
2019-05-22T22:10:45.595Z,13.20
2019-05-22T22:13:15.276Z,13.20
2019-05-22T22:15:45.692Z,13.20
2019-05-22T22:18:17.942Z,13.20
2019-05-22T22:20:47.912Z,13.10
2019-05-22T22:23:17.763Z,13.00
2019-05-22T22:25:47.801Z,13.00
2019-05-22T22:28:18.153Z,13.00
2019-05-22T22:30:51.955Z,13.00
2019-05-22T22:33:24.409Z,12.90
2019-05-22T22:35:54.354Z,12.70
2019-05-22T22:38:24.968Z,12.50
2019-05-22T22:40:56.003Z,12.50
2019-05-22T22:43:32.433Z,12.50
2019-05-22T22:46:23.321Z,12.40
2019-05-22T22:48:55.056Z,12.40
2019-05-22T22:51:26.608Z,12.40
2019-05-22T22:53:59.073Z,12.30
2019-05-22T22:56:28.888Z,12.10
2019-05-22T22:58:59.379Z,12.10
2019-05-22T23:01:32.895Z,12.10
2019-05-22T23:04:05.145Z,12.10
2019-05-22T23:06:36.371Z,12.10
2019-05-22T23:09:07.941Z,12.10
2019-05-22T23:11:41.447Z,12.20
2019-05-22T23:14:11.319Z,12.20
2019-05-22T23:16:40.793Z,12.10
2019-05-22T23:19:14.839Z,12.20
2019-05-22T23:21:44.731Z,12.20
2019-05-22T23:24:16.483Z,12.10
2019-05-22T23:26:45.955Z,12.00
2019-05-22T23:29:15.251Z,11.90
2019-05-22T23:31:45.105Z,11.90
2019-05-22T23:34:14.767Z,11.80
2019-05-22T23:36:45.197Z,11.80
2019-05-22T23:39:17.155Z,11.90
2019-05-22T23:41:47.389Z,12.00
2019-05-22T23:44:19.862Z,12.10
2019-05-22T23:46:49.895Z,12.10
2019-05-22T23:49:19.370Z,12.00
2019-05-22T23:51:48.758Z,11.90
2019-05-22T23:54:18.413Z,11.80
2019-05-22T23:56:49.610Z,11.90
2019-05-22T23:59:20.146Z,11.80
